Time;durP1;ratioP1;P1;durP2;ratioP2;P2;SDS_P1;SDS_P2;PMS_P1;PMS_P2;Temp;Humidity;BMP_temperature;BMP_pressure;BME280_temperature;BME280_humidity;BME280_pressure;Samples;Min_cycle;Max_cycle;Signal;HPM_P1;HPM_P2
2021/09/07 00:01:00;;;;;;;1999.90;999.90;;;;;;;;;;5055537;28;20452;-84
2021/09/07 00:03:27;;;;;;;1999.90;999.90;;;;;;;;;;5046525;28;20449;-83
2021/09/07 00:05:54;;;;;;;1999.90;999.90;;;;;;;;;;5045650;28;20488;-85
2021/09/07 00:08:22;;;;;;;1999.90;999.90;;;;;;;;;;5049003;28;20462;-85
2021/09/07 00:10:50;;;;;;;1999.90;999.90;;;;;;;;;;5043700;28;20443;-85
2021/09/07 00:13:17;;;;;;;1999.90;999.90;;;;;;;;;;5043833;28;20526;-85
2021/09/07 00:15:44;;;;;;;1999.90;999.90;;;;;;;;;;5060802;22;20507;-85
2021/09/07 00:18:11;;;;;;;1999.90;999.90;;;;;;;;;;5025902;28;20472;-85
2021/09/07 00:20:38;;;;;;;1999.90;999.90;;;;;;;;;;5032590;28;20980;-85
2021/09/07 00:23:06;;;;;;;1999.90;999.90;;;;;;;;;;5032396;28;20456;-87
2021/09/07 00:25:34;;;;;;;1999.90;999.90;;;;;;;;;;5032995;28;20522;-86
2021/09/07 00:28:02;;;;;;;1999.90;999.90;;;;;;;;;;5027126;28;20465;-85
2021/09/07 00:30:30;;;;;;;1999.90;999.90;;;;;;;;;;5012921;28;20899;-85
2021/09/07 00:32:57;;;;;;;1999.90;999.90;;;;;;;;;;5013083;28;20453;-85
2021/09/07 00:35:24;;;;;;;1999.90;999.90;;;;;;;;;;5012255;28;20473;-86
2021/09/07 00:37:51;;;;;;;1999.90;999.90;;;;;;;;;;5014800;28;20476;-86
2021/09/07 00:40:18;;;;;;;1999.90;999.90;;;;;;;;;;5032246;28;20435;-85
2021/09/07 00:42:47;;;;;;;1999.90;999.90;;;;;;;;;;5032151;28;20543;-86
2021/09/07 00:45:14;;;;;;;1999.90;999.90;;;;;;;;;;5032084;28;20492;-85
2021/09/07 00:47:41;;;;;;;1999.90;999.90;;;;;;;;;;5029537;28;20971;-86
2021/09/07 00:50:09;;;;;;;1999.90;999.90;;;;;;;;;;5012430;28;20453;-86
2021/09/07 00:52:37;;;;;;;1999.90;999.90;;;;;;;;;;5012467;28;20813;-85
2021/09/07 00:55:04;;;;;;;1999.90;999.90;;;;;;;;;;5012582;28;20850;-85
2021/09/07 00:57:32;;;;;;;1999.90;999.90;;;;;;;;;;5011576;28;20449;-86
2021/09/07 01:00:03;;;;;;;1999.90;999.90;;;;;;;;;;5012446;28;20457;-88
2021/09/07 01:02:30;;;;;;;1999.90;999.90;;;;;;;;;;5027656;28;20536;-85
2021/09/07 01:04:57;;;;;;;1999.90;999.90;;;;;;;;;;5032028;28;20504;-85
2021/09/07 01:07:24;;;;;;;1999.90;999.90;;;;;;;;;;5031341;28;20967;-86
2021/09/07 01:09:51;;;;;;;1999.90;999.90;;;;;;;;;;5046114;28;20468;-85
2021/09/07 01:12:19;;;;;;;1999.90;999.90;;;;;;;;;;5051856;28;20455;-86
2021/09/07 01:14:46;;;;;;;1999.90;999.90;;;;;;;;;;5051960;28;20475;-85
2021/09/07 01:17:15;;;;;;;1999.90;999.90;;;;;;;;;;5052161;28;20464;-85
2021/09/07 01:19:44;;;;;;;1999.90;999.90;;;;;;;;;;5034543;28;20455;-85
2021/09/07 01:22:11;;;;;;;1999.90;999.90;;;;;;;;;;5050230;28;20458;-85
2021/09/07 01:24:39;;;;;;;1999.90;999.90;;;;;;;;;;5041378;28;20484;-85
2021/09/07 01:27:07;;;;;;;1999.90;999.90;;;;;;;;;;5029357;28;20475;-85
2021/09/07 01:29:34;;;;;;;1999.90;999.90;;;;;;;;;;5031588;28;20459;-85
2021/09/07 01:32:02;;;;;;;1999.90;999.90;;;;;;;;;;5031742;28;20452;-85
2021/09/07 01:34:29;;;;;;;1999.90;999.90;;;;;;;;;;5031942;28;20454;-85
2021/09/07 01:36:56;;;;;;;1999.90;999.90;;;;;;;;;;5022079;28;20465;-85
2021/09/07 01:39:24;;;;;;;1999.90;999.90;;;;;;;;;;5011818;28;20460;-86
2021/09/07 01:41:53;;;;;;;1999.90;999.90;;;;;;;;;;5011702;28;20878;-87
2021/09/07 01:44:21;;;;;;;1999.90;999.90;;;;;;;;;;5011970;28;20557;-85
2021/09/07 01:46:48;;;;;;;1999.90;999.90;;;;;;;;;;5018314;28;20464;-85
2021/09/07 01:49:16;;;;;;;1999.90;999.90;;;;;;;;;;5032964;28;20832;-86
2021/09/07 01:51:44;;;;;;;1999.90;999.90;;;;;;;;;;5035073;28;20474;-85
2021/09/07 01:54:12;;;;;;;1999.90;999.90;;;;;;;;;;5034980;28;20480;-86
2021/09/07 01:56:40;;;;;;;1999.90;999.90;;;;;;;;;;5027798;28;20469;-85
2021/09/07 01:59:09;;;;;;;1999.90;999.90;;;;;;;;;;5015142;28;20454;-85
2021/09/07 02:01:36;;;;;;;1999.90;999.90;;;;;;;;;;5015251;28;20455;-85
2021/09/07 02:04:03;;;;;;;1999.90;999.90;;;;;;;;;;5015256;28;20449;-87
2021/09/07 02:06:30;;;;;;;1999.90;999.90;;;;;;;;;;5019278;28;20556;-85
2021/09/07 02:08:57;;;;;;;1999.90;999.90;;;;;;;;;;5044220;28;20522;-86
2021/09/07 02:11:24;;;;;;;1999.90;999.90;;;;;;;;;;5054734;28;20467;-86
2021/09/07 02:13:51;;;;;;;1999.90;999.90;;;;;;;;;;5054550;28;20460;-85
2021/09/07 02:16:19;;;;;;;1999.90;999.90;;;;;;;;;;5049873;28;20499;-85
2021/09/07 02:18:46;;;;;;;1999.90;999.90;;;;;;;;;;5034688;28;20982;-85
2021/09/07 02:21:13;;;;;;;1999.90;999.90;;;;;;;;;;5034542;28;20461;-85
2021/09/07 02:23:41;;;;;;;1999.90;999.90;;;;;;;;;;5032633;28;20467;-85
2021/09/07 02:26:11;;;;;;;1999.90;999.90;;;;;;;;;;5033012;28;20488;-84
2021/09/07 02:28:38;;;;;;;1999.90;999.90;;;;;;;;;;5025689;28;20480;-85
2021/09/07 02:31:05;;;;;;;1999.90;999.90;;;;;;;;;;5018961;28;20453;-85
2021/09/07 02:33:33;;;;;;;1999.90;999.90;;;;;;;;;;5037734;28;20513;-86
2021/09/07 02:36:00;;;;;;;1999.90;999.90;;;;;;;;;;5015797;28;20476;-85
2021/09/07 02:38:27;;;;;;;1999.90;999.90;;;;;;;;;;5033641;28;20457;-85
2021/09/07 02:40:57;;;;;;;1999.90;999.90;;;;;;;;;;5033894;28;20463;-85
2021/09/07 02:43:25;;;;;;;1999.90;999.90;;;;;;;;;;5033814;28;20592;-85
2021/09/07 02:45:52;;;;;;;1999.90;999.90;;;;;;;;;;5033512;28;20490;-85
2021/09/07 02:48:19;;;;;;;1999.90;999.90;;;;;;;;;;5033112;28;20460;-86
2021/09/07 02:50:48;;;;;;;1999.90;999.90;;;;;;;;;;5033071;28;20467;-86
2021/09/07 02:53:15;;;;;;;1999.90;999.90;;;;;;;;;;5034673;28;20458;-86
2021/09/07 02:55:42;;;;;;;1999.90;999.90;;;;;;;;;;5034214;28;20471;-86
2021/09/07 02:58:10;;;;;;;1999.90;999.90;;;;;;;;;;5039145;28;20498;-85
2021/09/07 03:00:37;;;;;;;1999.90;999.90;;;;;;;;;;5037146;28;20452;-86
2021/09/07 03:03:04;;;;;;;1999.90;999.90;;;;;;;;;;5037564;28;20459;-85
2021/09/07 03:05:32;;;;;;;1999.90;999.90;;;;;;;;;;5035467;28;20535;-86
2021/09/07 03:08:00;;;;;;;1999.90;999.90;;;;;;;;;;5033386;28;20456;-86
2021/09/07 03:10:27;;;;;;;1999.90;999.90;;;;;;;;;;5039909;28;20464;-86
2021/09/07 03:12:55;;;;;;;1999.90;999.90;;;;;;;;;;5035270;28;20475;-86
2021/09/07 03:15:22;;;;;;;1999.90;999.90;;;;;;;;;;5035564;28;20484;-86
2021/09/07 03:17:49;;;;;;;1999.90;999.90;;;;;;;;;;5022147;28;20464;-86
2021/09/07 03:20:16;;;;;;;1999.90;999.90;;;;;;;;;;5033258;28;20521;-86
2021/09/07 03:22:43;;;;;;;1999.90;999.90;;;;;;;;;;5029888;28;20894;-86
2021/09/07 03:25:12;;;;;;;1999.90;999.90;;;;;;;;;;5013488;28;21058;-86
2021/09/07 03:27:40;;;;;;;1999.90;999.90;;;;;;;;;;5013584;28;20941;-86
2021/09/07 03:30:08;;;;;;;1999.90;999.90;;;;;;;;;;5013381;28;20460;-87
2021/09/07 03:32:35;;;;;;;1999.90;999.90;;;;;;;;;;5013680;28;20460;-87
2021/09/07 03:35:04;;;;;;;1999.90;999.90;;;;;;;;;;5013194;28;20476;-87
2021/09/07 03:37:31;;;;;;;1999.90;999.90;;;;;;;;;;5023725;28;20545;-86
2021/09/07 03:39:58;;;;;;;1999.90;999.90;;;;;;;;;;5034386;28;20446;-85
2021/09/07 03:42:26;;;;;;;1999.90;999.90;;;;;;;;;;5039746;28;20459;-85
2021/09/07 03:44:54;;;;;;;1999.90;999.90;;;;;;;;;;5039784;28;20476;-85
2021/09/07 03:47:21;;;;;;;1999.90;999.90;;;;;;;;;;5038401;28;20484;-85
2021/09/07 03:49:48;;;;;;;1999.90;999.90;;;;;;;;;;5038659;28;20455;-86
2021/09/07 03:52:15;;;;;;;1999.90;999.90;;;;;;;;;;5038947;28;20462;-85
2021/09/07 03:54:42;;;;;;;1999.90;999.90;;;;;;;;;;5036942;28;20485;-85
2021/09/07 03:57:09;;;;;;;1999.90;999.90;;;;;;;;;;5028392;28;20453;-85
2021/09/07 03:59:38;;;;;;;1999.90;999.90;;;;;;;;;;5016381;28;21132;-85
2021/09/07 04:02:05;;;;;;;1999.90;999.90;;;;;;;;;;5016141;28;20456;-84
2021/09/07 04:04:32;;;;;;;1999.90;999.90;;;;;;;;;;5015171;28;21099;-85
2021/09/07 04:06:59;;;;;;;1999.90;999.90;;;;;;;;;;5023101;28;20488;-85
2021/09/07 04:09:26;;;;;;;1999.90;999.90;;;;;;;;;;5051993;28;20448;-84
2021/09/07 04:11:54;;;;;;;1999.90;999.90;;;;;;;;;;5057087;28;20462;-84
2021/09/07 04:14:21;;;;;;;1999.90;999.90;;;;;;;;;;5017164;28;20842;-85
2021/09/07 04:16:49;;;;;;;1999.90;999.90;;;;;;;;;;5015504;28;20449;-85
2021/09/07 04:19:18;;;;;;;1999.90;999.90;;;;;;;;;;5032352;28;20950;-85
2021/09/07 04:21:45;;;;;;;1999.90;999.90;;;;;;;;;;5032150;28;20489;-85
2021/09/07 04:24:13;;;;;;;1999.90;999.90;;;;;;;;;;5032108;28;20840;-85
2021/09/07 04:26:40;;;;;;;1999.90;999.90;;;;;;;;;;5028537;28;21033;-86
2021/09/07 04:29:07;;;;;;;1999.90;999.90;;;;;;;;;;5019481;28;20460;-85
2021/09/07 04:31:34;;;;;;;1999.90;999.90;;;;;;;;;;5031887;28;20455;-85
2021/09/07 04:34:03;;;;;;;1999.90;999.90;;;;;;;;;;5032185;28;20445;-85
2021/09/07 04:36:30;;;;;;;1999.90;999.90;;;;;;;;;;5030116;28;20586;-85
2021/09/07 04:38:57;;;;;;;1999.90;999.90;;;;;;;;;;5011783;28;20843;-86
2021/09/07 04:41:25;;;;;;;1999.90;999.90;;;;;;;;;;5012245;28;20465;-85
2021/09/07 04:43:52;;;;;;;1999.90;999.90;;;;;;;;;;5012376;28;20452;-85
2021/09/07 04:46:19;;;;;;;1999.90;999.90;;;;;;;;;;5012005;28;20493;-86
2021/09/07 04:48:49;;;;;;;1999.90;999.90;;;;;;;;;;5028564;28;20453;-85
2021/09/07 04:51:18;;;;;;;1999.90;999.90;;;;;;;;;;5012440;28;20470;-85
2021/09/07 04:53:45;;;;;;;1999.90;999.90;;;;;;;;;;5012456;28;20840;-86
2021/09/07 04:56:12;;;;;;;1999.90;999.90;;;;;;;;;;5011705;28;20473;-85
2021/09/07 04:58:39;;;;;;;1999.90;999.90;;;;;;;;;;5030319;28;20817;-85
2021/09/07 05:01:06;;;;;;;1999.90;999.90;;;;;;;;;;5031704;28;20555;-85
2021/09/07 05:03:33;;;;;;;1999.90;999.90;;;;;;;;;;5031840;28;20450;-85
2021/09/07 05:06:00;;;;;;;1999.90;999.90;;;;;;;;;;5031680;28;20502;-85
2021/09/07 05:08:29;;;;;;;1999.90;999.90;;;;;;;;;;5020687;28;20469;-87
2021/09/07 05:10:56;;;;;;;1999.90;999.90;;;;;;;;;;5023552;28;20465;-83
2021/09/07 05:13:25;;;;;;;1999.90;999.90;;;;;;;;;;5021942;28;20450;-83
2021/09/07 05:15:52;;;;;;;1999.90;999.90;;;;;;;;;;5022070;28;20476;-86
2021/09/07 05:18:19;;;;;;;1999.90;999.90;;;;;;;;;;5035254;28;20454;-84
2021/09/07 05:20:46;;;;;;;1999.90;999.90;;;;;;;;;;5054048;28;20463;-83
2021/09/07 05:23:13;;;;;;;1999.90;999.90;;;;;;;;;;5035042;28;20453;-83
2021/09/07 05:25:42;;;;;;;1999.90;999.90;;;;;;;;;;5028378;28;20473;-84
2021/09/07 05:28:09;;;;;;;1999.90;999.90;;;;;;;;;;5026535;28;21128;-83
2021/09/07 05:30:39;;;;;;;1999.90;999.90;;;;;;;;;;5021399;28;20481;-85
2021/09/07 05:33:07;;;;;;;1999.90;999.90;;;;;;;;;;5021023;28;20540;-85
2021/09/07 05:35:34;;;;;;;1999.90;999.90;;;;;;;;;;5034419;28;21049;-85
2021/09/07 05:38:03;;;;;;;1999.90;999.90;;;;;;;;;;5021191;28;20454;-85
2021/09/07 05:40:31;;;;;;;1999.90;999.90;;;;;;;;;;5014169;28;21155;-85
2021/09/07 05:42:59;;;;;;;1999.90;999.90;;;;;;;;;;5014414;28;20485;-84
2021/09/07 05:45:26;;;;;;;1999.90;999.90;;;;;;;;;;5013955;28;20476;-84
2021/09/07 05:47:53;;;;;;;1999.90;999.90;;;;;;;;;;5024726;28;20565;-84
2021/09/07 05:50:20;;;;;;;1999.90;999.90;;;;;;;;;;5033707;28;20445;-84
2021/09/07 05:52:47;;;;;;;1999.90;999.90;;;;;;;;;;5038064;28;20956;-85
2021/09/07 05:55:16;;;;;;;1999.90;999.90;;;;;;;;;;5056238;28;20474;-83
2021/09/07 05:57:43;;;;;;;1999.90;999.90;;;;;;;;;;5027206;28;20549;-85
2021/09/07 06:00:13;;;;;;;1999.90;999.90;;;;;;;;;;5020820;28;20457;-85
2021/09/07 06:02:41;;;;;;;1999.90;999.90;;;;;;;;;;5035342;28;20464;-86
2021/09/07 06:05:10;;;;;;;1999.90;999.90;;;;;;;;;;5036842;28;20495;-85
2021/09/07 06:07:38;;;;;;;1999.90;999.90;;;;;;;;;;5026854;28;20481;-85
2021/09/07 06:10:05;;;;;;;1999.90;999.90;;;;;;;;;;5017490;28;20458;-84
2021/09/07 06:12:32;;;;;;;1999.90;999.90;;;;;;;;;;5018925;28;20484;-86
2021/09/07 06:15:00;;;;;;;1999.90;999.90;;;;;;;;;;5024388;28;20485;-84
2021/09/07 06:17:28;;;;;;;1999.90;999.90;;;;;;;;;;5023851;28;20455;-84
2021/09/07 06:19:55;;;;;;;1999.90;999.90;;;;;;;;;;5028272;28;20444;-85
2021/09/07 06:22:22;;;;;;;1999.90;999.90;;;;;;;;;;5026784;28;20945;-84
2021/09/07 06:24:52;;;;;;;1999.90;999.90;;;;;;;;;;5028924;28;20479;-84
2021/09/07 06:27:19;;;;;;;1999.90;999.90;;;;;;;;;;5029862;28;20479;-86
2021/09/07 06:29:46;;;;;;;1999.90;999.90;;;;;;;;;;5028687;28;20493;-85
2021/09/07 06:32:16;;;;;;;1999.90;999.90;;;;;;;;;;5029226;28;20456;-86
2021/09/07 06:34:45;;;;;;;1999.90;999.90;;;;;;;;;;5026838;28;20467;-86
2021/09/07 06:37:12;;;;;;;1999.90;999.90;;;;;;;;;;5026700;28;20556;-87
2021/09/07 06:39:39;;;;;;;1999.90;999.90;;;;;;;;;;5024352;28;20454;-86
2021/09/07 06:42:06;;;;;;;1999.90;999.90;;;;;;;;;;5020690;28;20456;-86
2021/09/07 06:44:33;;;;;;;1999.90;999.90;;;;;;;;;;5028165;28;20539;-85
2021/09/07 06:47:01;;;;;;;1999.90;999.90;;;;;;;;;;5020080;28;20490;-85
2021/09/07 06:49:28;;;;;;;1999.90;999.90;;;;;;;;;;5034528;28;20469;-86
2021/09/07 06:51:56;;;;;;;1999.90;999.90;;;;;;;;;;5026985;28;20854;-84
2021/09/07 06:54:24;;;;;;;1999.90;999.90;;;;;;;;;;5023054;28;20462;-85
2021/09/07 06:56:52;;;;;;;1999.90;999.90;;;;;;;;;;5031732;28;20448;-85
2021/09/07 06:59:19;;;;;;;1999.90;999.90;;;;;;;;;;5048070;28;20461;-88
2021/09/07 07:01:46;;;;;;;1999.90;999.90;;;;;;;;;;5049748;28;20527;-86
2021/09/07 07:04:14;;;;;;;1999.90;999.90;;;;;;;;;;5046084;28;20450;-86
2021/09/07 07:06:41;;;;;;;1999.90;999.90;;;;;;;;;;5035647;28;20495;-86
2021/09/07 07:09:10;;;;;;;1999.90;999.90;;;;;;;;;;5034687;28;20448;-86
2021/09/07 07:11:37;;;;;;;1999.90;999.90;;;;;;;;;;5042371;28;20547;-86
2021/09/07 07:14:04;;;;;;;1999.90;999.90;;;;;;;;;;5041022;28;20487;-86
2021/09/07 07:16:31;;;;;;;1999.90;999.90;;;;;;;;;;5055163;28;20614;-86
2021/09/07 07:18:58;;;;;;;1999.90;999.90;;;;;;;;;;5058348;28;20947;-87
2021/09/07 07:21:27;;;;;;;1999.90;999.90;;;;;;;;;;5039631;28;20448;-85
2021/09/07 07:23:54;;;;;;;1999.90;999.90;;;;;;;;;;5037620;28;20455;-87
2021/09/07 07:26:23;;;;;;;1999.90;999.90;;;;;;;;;;5021350;28;20476;-85
2021/09/07 07:28:50;;;;;;;1999.90;999.90;;;;;;;;;;5017835;28;20479;-85
2021/09/07 07:31:17;;;;;;;1999.90;999.90;;;;;;;;;;5017976;28;20467;-85
2021/09/07 07:33:44;;;;;;;1999.90;999.90;;;;;;;;;;5041239;28;20458;-87
2021/09/07 07:36:11;;;;;;;1999.90;999.90;;;;;;;;;;5040372;28;20493;-84
2021/09/07 07:38:38;;;;;;;1999.90;999.90;;;;;;;;;;5038159;28;20444;-85
2021/09/07 07:41:05;;;;;;;1999.90;999.90;;;;;;;;;;5029745;28;20546;-84
2021/09/07 07:43:36;;;;;;;1999.90;999.90;;;;;;;;;;5015402;28;20465;-85
2021/09/07 07:46:03;;;;;;;1999.90;999.90;;;;;;;;;;5014834;28;20485;-85
2021/09/07 07:48:31;;;;;;;1999.90;999.90;;;;;;;;;;5015374;28;20496;-85
2021/09/07 07:50:58;;;;;;;1999.90;999.90;;;;;;;;;;5022526;28;20460;-85
2021/09/07 07:53:25;;;;;;;1999.90;999.90;;;;;;;;;;5034727;28;20456;-85
2021/09/07 07:55:52;;;;;;;1999.90;999.90;;;;;;;;;;5034323;28;20484;-86
2021/09/07 07:58:19;;;;;;;1999.90;999.90;;;;;;;;;;5054332;28;20451;-86
2021/09/07 08:00:48;;;;;;;1999.90;999.90;;;;;;;;;;5045660;28;20460;-84
2021/09/07 08:03:15;;;;;;;1999.90;999.90;;;;;;;;;;5024036;28;20457;-83
2021/09/07 08:05:42;;;;;;;1999.90;999.90;;;;;;;;;;5032882;28;20469;-85
2021/09/07 08:08:09;;;;;;;1999.90;999.90;;;;;;;;;;5033532;28;20945;-85
2021/09/07 08:10:38;;;;;;;1999.90;999.90;;;;;;;;;;5033613;28;20506;-84
2021/09/07 08:13:05;;;;;;;1999.90;999.90;;;;;;;;;;5014262;28;20488;-84
2021/09/07 08:15:32;;;;;;;1999.90;999.90;;;;;;;;;;5013562;28;20481;-84
2021/09/07 08:18:01;;;;;;;1999.90;999.90;;;;;;;;;;5012791;28;20453;-83
2021/09/07 08:20:29;;;;;;;1999.90;999.90;;;;;;;;;;5013793;28;20463;-84
2021/09/07 08:22:56;;;;;;;1999.90;999.90;;;;;;;;;;5032724;28;20460;-86
2021/09/07 08:25:23;;;;;;;1999.90;999.90;;;;;;;;;;5033014;28;20547;-85
2021/09/07 08:27:50;;;;;;;1999.90;999.90;;;;;;;;;;5031560;28;21034;-85
2021/09/07 08:30:18;;;;;;;1999.90;999.90;;;;;;;;;;5033049;28;20452;-84
2021/09/07 08:32:45;;;;;;;1999.90;999.90;;;;;;;;;;5013524;28;20819;-84
2021/09/07 08:35:14;;;;;;;1999.90;999.90;;;;;;;;;;5013294;28;20458;-84
2021/09/07 08:37:42;;;;;;;1999.90;999.90;;;;;;;;;;5010891;28;20446;-84
2021/09/07 08:40:10;;;;;;;1999.90;999.90;;;;;;;;;;5012235;28;20457;-85
2021/09/07 08:42:37;;;;;;;1999.90;999.90;;;;;;;;;;5012040;28;20460;-86
2021/09/07 08:45:06;;;;;;;1999.90;999.90;;;;;;;;;;5032168;28;21032;-84
2021/09/07 08:47:33;;;;;;;1999.90;999.90;;;;;;;;;;5030864;28;20503;-84
2021/09/07 08:50:02;;;;;;;1999.90;999.90;;;;;;;;;;5031349;28;21160;-86
2021/09/07 08:52:30;;;;;;;1999.90;999.90;;;;;;;;;;5031459;28;20460;-84
2021/09/07 08:54:57;;;;;;;1999.90;999.90;;;;;;;;;;5029306;28;20460;-85
2021/09/07 08:57:25;;;;;;;1999.90;999.90;;;;;;;;;;5032414;28;20452;-86
2021/09/07 08:59:57;;;;;;;1999.90;999.90;;;;;;;;;;5035569;28;20829;-88
2021/09/07 09:02:25;;;;;;;1999.90;999.90;;;;;;;;;;5030026;28;20614;-85
2021/09/07 09:04:54;;;;;;;1999.90;999.90;;;;;;;;;;5017123;28;20474;-84
2021/09/07 09:07:22;;;;;;;1999.90;999.90;;;;;;;;;;5025656;28;20480;-85
2021/09/07 09:09:51;;;;;;;1999.90;999.90;;;;;;;;;;5040465;28;20527;-82
2021/09/07 09:12:18;;;;;;;1999.90;999.90;;;;;;;;;;5031055;28;20940;-82
2021/09/07 09:14:46;;;;;;;1999.90;999.90;;;;;;;;;;5059190;28;20456;-86
2021/09/07 09:17:27;;;;;;;1999.90;999.90;;;;;;;;;;5054902;28;20429;-83
2021/09/07 09:19:56;;;;;;;1999.90;999.90;;;;;;;;;;5035471;28;20433;-84
2021/09/07 09:22:40;;;;;;;1999.90;999.90;;;;;;;;;;5031284;28;20819;-84
2021/09/07 09:25:24;;;;;;;1999.90;999.90;;;;;;;;;;5038856;28;20482;-85
2021/09/07 09:27:51;;;;;;;1999.90;999.90;;;;;;;;;;5037866;28;20553;-84
2021/09/07 09:30:25;;;;;;;1999.90;999.90;;;;;;;;;;5037649;28;20462;-83
2021/09/07 09:32:53;;;;;;;1999.90;999.90;;;;;;;;;;5035497;28;20459;-84
2021/09/07 09:35:21;;;;;;;1999.90;999.90;;;;;;;;;;5036745;28;20460;-83
2021/09/07 09:37:53;;;;;;;1999.90;999.90;;;;;;;;;;5035804;28;20543;-84
2021/09/07 09:40:22;;;;;;;1999.90;999.90;;;;;;;;;;5036504;28;20435;-82
2021/09/07 09:42:49;;;;;;;1999.90;999.90;;;;;;;;;;5034918;28;20459;-83
2021/09/07 09:45:17;;;;;;;1999.90;999.90;;;;;;;;;;5036353;28;20540;-85
2021/09/07 09:47:45;;;;;;;1999.90;999.90;;;;;;;;;;5037120;28;20617;-85
2021/09/07 09:50:13;;;;;;;1999.90;999.90;;;;;;;;;;5037773;28;20455;-82
2021/09/07 09:52:41;;;;;;;1999.90;999.90;;;;;;;;;;5038380;28;20523;-84
2021/09/07 09:55:10;;;;;;;1999.90;999.90;;;;;;;;;;5037274;28;20555;-86
2021/09/07 09:57:39;;;;;;;1999.90;999.90;;;;;;;;;;5036335;28;20982;-85
2021/09/07 10:00:07;;;;;;;1999.90;999.90;;;;;;;;;;5036547;28;20459;-84
2021/09/07 10:02:34;;;;;;;1999.90;999.90;;;;;;;;;;5033325;28;20467;-84
2021/09/07 10:05:01;;;;;;;1999.90;999.90;;;;;;;;;;5026455;28;20462;-85
2021/09/07 10:07:28;;;;;;;1999.90;999.90;;;;;;;;;;5033665;28;20591;-84
2021/09/07 10:09:57;;;;;;;1999.90;999.90;;;;;;;;;;5034730;28;20442;-85
2021/09/07 10:12:26;;;;;;;1999.90;999.90;;;;;;;;;;5030261;28;20453;-84
2021/09/07 10:15:02;;;;;;;1999.90;999.90;;;;;;;;;;5027717;28;20997;-84
2021/09/07 10:17:41;;;;;;;1999.90;999.90;;;;;;;;;;5017966;28;20453;-86
2021/09/07 10:23:05;;;;;;;1999.90;999.90;;;;;;;;;;5017308;28;20481;-85
2021/09/07 10:25:51;;;;;;;1999.90;999.90;;;;;;;;;;5017632;28;20481;-84
2021/09/07 10:28:29;;;;;;;1999.90;999.90;;;;;;;;;;5014799;28;21028;-84
2021/09/07 10:30:59;;;;;;;1999.90;999.90;;;;;;;;;;5015992;28;20511;-84
2021/09/07 10:33:32;;;;;;;1999.90;999.90;;;;;;;;;;5014915;28;20460;-86
2021/09/07 10:36:16;;;;;;;1999.90;999.90;;;;;;;;;;5055309;28;20466;-83
2021/09/07 10:38:44;;;;;;;1999.90;999.90;;;;;;;;;;5055174;28;20447;-84
2021/09/07 10:41:12;;;;;;;1999.90;999.90;;;;;;;;;;5037064;28;20464;-84
2021/09/07 10:43:54;;;;;;;1999.90;999.90;;;;;;;;;;5032591;28;20528;-86
2021/09/07 10:46:40;;;;;;;1999.90;999.90;;;;;;;;;;5035026;28;20477;-85
2021/09/07 10:49:23;;;;;;;1999.90;999.90;;;;;;;;;;5033319;28;20942;-86
2021/09/07 10:52:13;;;;;;;1999.90;999.90;;;;;;;;;;5027932;28;20464;-84
2021/09/07 10:54:41;;;;;;;1999.90;999.90;;;;;;;;;;5034254;28;20535;-84
2021/09/07 10:57:09;;;;;;;1999.90;999.90;;;;;;;;;;5035599;28;20551;-85
2021/09/07 10:59:46;;;;;;;1999.90;999.90;;;;;;;;;;5037490;28;20451;-84
2021/09/07 11:02:31;;;;;;;1999.90;999.90;;;;;;;;;;5042546;28;20456;-85
2021/09/07 11:05:01;;;;;;;1999.90;999.90;;;;;;;;;;5027972;28;20472;-86
2021/09/07 11:07:39;;;;;;;1999.90;999.90;;;;;;;;;;5019404;28;20465;-85
2021/09/07 11:10:07;;;;;;;1999.90;999.90;;;;;;;;;;5020317;28;20456;-86
2021/09/07 11:12:35;;;;;;;1999.90;999.90;;;;;;;;;;5019183;28;21081;-86
2021/09/07 11:15:08;;;;;;;1999.90;999.90;;;;;;;;;;5038223;28;20492;-86
2021/09/07 11:17:35;;;;;;;1999.90;999.90;;;;;;;;;;5040136;28;20457;-85
2021/09/07 11:20:06;;;;;;;1999.90;999.90;;;;;;;;;;5029277;28;20961;-85
2021/09/07 11:22:33;;;;;;;1999.90;999.90;;;;;;;;;;5021147;28;20837;-85
2021/09/07 11:25:04;;;;;;;1999.90;999.90;;;;;;;;;;5014887;28;20473;-87
2021/09/07 11:27:46;;;;;;;1999.90;999.90;;;;;;;;;;5014386;28;20838;-85
2021/09/07 11:30:20;;;;;;;1999.90;999.90;;;;;;;;;;5013283;28;20536;-85
2021/09/07 11:32:47;;;;;;;1999.90;999.90;;;;;;;;;;5031706;28;20467;-86
2021/09/07 11:35:16;;;;;;;1999.90;999.90;;;;;;;;;;5033137;28;20473;-85
2021/09/07 11:37:43;;;;;;;1999.90;999.90;;;;;;;;;;5032635;28;20980;-86
2021/09/07 11:40:11;;;;;;;1999.90;999.90;;;;;;;;;;5035924;28;20452;-85
2021/09/07 11:42:43;;;;;;;1999.90;999.90;;;;;;;;;;5025104;28;20957;-86
2021/09/07 11:45:10;;;;;;;1999.90;999.90;;;;;;;;;;5027085;28;20483;-85
2021/09/07 11:47:37;;;;;;;1999.90;999.90;;;;;;;;;;5033135;28;20468;-86
2021/09/07 11:50:05;;;;;;;1999.90;999.90;;;;;;;;;;5033422;28;20843;-85
2021/09/07 11:52:34;;;;;;;1999.90;999.90;;;;;;;;;;5031885;28;20459;-84
2021/09/07 11:55:01;;;;;;;1999.90;999.90;;;;;;;;;;5028876;28;20476;-84
2021/09/07 11:57:43;;;;;;;1999.90;999.90;;;;;;;;;;5028975;28;20457;-81
2021/09/07 12:00:11;;;;;;;1999.90;999.90;;;;;;;;;;5025784;28;20452;-85
2021/09/07 12:02:38;;;;;;;1999.90;999.90;;;;;;;;;;5018873;28;20465;-85
2021/09/07 12:05:05;;;;;;;1999.90;999.90;;;;;;;;;;5019821;28;20476;-84
2021/09/07 12:07:34;;;;;;;1999.90;999.90;;;;;;;;;;5032339;28;20512;-85
2021/09/07 12:10:06;;;;;;;1999.90;999.90;;;;;;;;;;5021679;28;20439;-83
2021/09/07 12:12:35;;;;;;;1999.90;999.90;;;;;;;;;;5025461;28;20202;-84
2021/09/07 12:15:16;;;;;;;1999.90;999.90;;;;;;;;;;5048347;28;20472;-83
2021/09/07 12:17:45;;;;;;;1999.90;999.90;;;;;;;;;;5053185;28;20451;-84
2021/09/07 12:20:14;;;;;;;1999.90;999.90;;;;;;;;;;5047014;28;20456;-82
2021/09/07 12:22:43;;;;;;;1999.90;999.90;;;;;;;;;;5025925;28;20453;-86
2021/09/07 12:25:11;;;;;;;1999.90;999.90;;;;;;;;;;5018717;28;20910;-83
2021/09/07 12:27:43;;;;;;;1999.90;999.90;;;;;;;;;;5020825;28;20461;-83
2021/09/07 12:30:12;;;;;;;1999.90;999.90;;;;;;;;;;5021897;28;20450;-82
2021/09/07 12:32:47;;;;;;;1999.90;999.90;;;;;;;;;;5023037;28;20564;-82
2021/09/07 12:35:26;;;;;;;1999.90;999.90;;;;;;;;;;5016000;28;20850;-82
2021/09/07 12:37:55;;;;;;;1999.90;999.90;;;;;;;;;;5017983;28;20452;-83
2021/09/07 12:40:22;;;;;;;1999.90;999.90;;;;;;;;;;5016822;28;20462;-84
2021/09/07 12:42:50;;;;;;;1999.90;999.90;;;;;;;;;;5030066;28;20461;-85
2021/09/07 12:45:17;;;;;;;1999.90;999.90;;;;;;;;;;5027253;28;20557;-82
2021/09/07 12:47:44;;;;;;;1999.90;999.90;;;;;;;;;;5048568;28;20447;-83
2021/09/07 12:50:12;;;;;;;1999.90;999.90;;;;;;;;;;5051864;28;20480;-84
2021/09/07 12:52:39;;;;;;;1999.90;999.90;;;;;;;;;;5021640;28;20968;-84
2021/09/07 12:55:09;;;;;;;1999.90;999.90;;;;;;;;;;5020298;28;20466;-83
2021/09/07 12:57:36;;;;;;;1999.90;999.90;;;;;;;;;;5026676;28;20806;-82
2021/09/07 13:00:03;;;;;;;1999.90;999.90;;;;;;;;;;5023527;28;20445;-86
2021/09/07 13:02:30;;;;;;;1999.90;999.90;;;;;;;;;;5023113;28;20454;-83
2021/09/07 13:04:57;;;;;;;1999.90;999.90;;;;;;;;;;5027238;28;20541;-86
2021/09/07 13:07:24;;;;;;;1999.90;999.90;;;;;;;;;;5023744;28;20520;-85
2021/09/07 13:09:51;;;;;;;1999.90;999.90;;;;;;;;;;5037637;28;20491;-84
2021/09/07 13:12:20;;;;;;;1999.90;999.90;;;;;;;;;;5034374;28;20596;-84
2021/09/07 13:14:47;;;;;;;1999.90;999.90;;;;;;;;;;5027538;28;20491;-84
2021/09/07 13:17:14;;;;;;;1999.90;999.90;;;;;;;;;;5021481;28;20430;-87
2021/09/07 13:19:41;;;;;;;1999.90;999.90;;;;;;;;;;5032821;28;20515;-84
2021/09/07 13:22:08;;;;;;;1999.90;999.90;;;;;;;;;;5039144;28;20445;-84
2021/09/07 13:24:36;;;;;;;1999.90;999.90;;;;;;;;;;5033021;28;20454;-84
2021/09/07 13:27:03;;;;;;;1999.90;999.90;;;;;;;;;;5033277;28;20506;-83
2021/09/07 13:29:31;;;;;;;1999.90;999.90;;;;;;;;;;5017598;28;21042;-85
2021/09/07 13:31:58;;;;;;;1999.90;999.90;;;;;;;;;;5019010;28;20464;-83
2021/09/07 13:34:26;;;;;;;1999.90;999.90;;;;;;;;;;5033294;28;20452;-84
2021/09/07 13:36:53;;;;;;;1999.90;999.90;;;;;;;;;;5029342;28;20464;-84
2021/09/07 13:39:20;;;;;;;1999.90;999.90;;;;;;;;;;5077820;22;20514;-83
2021/09/07 13:41:47;;;;;;;1999.90;999.90;;;;;;;;;;5058437;28;20446;-82
2021/09/07 13:44:14;;;;;;;1999.90;999.90;;;;;;;;;;5058824;28;20475;-83
2021/09/07 13:46:43;;;;;;;1999.90;999.90;;;;;;;;;;5062812;28;20507;-82
2021/09/07 13:49:10;;;;;;;1999.90;999.90;;;;;;;;;;5060688;28;20488;-83
2021/09/07 13:51:37;;;;;;;1999.90;999.90;;;;;;;;;;5059001;28;20456;-84